Terminal Aerodrome Forecast
Issued by NWS

Home | Current Version | Previous Version | Text Only | Print | Product List | Glossary On
Versions: 1 2 3 4 5 6 7 8 9 10 11 12 13 14 15 16 17 18 19 20 21 22 23
746
FTUS43 KLSX 211740 AAB
TAFCPS
TAF AMD
KCPS 211740Z 2118/2218 05004KT P6SM VCSH BKN100
     FM212000 02004KT P6SM BKN060
     FM212200 02004KT P6SM SCT060
     FM220100 VRB03KT P6SM BKN060
     FM220900 00000KT 3/4SM BR SCT015
     FM221400 VRB03KT 1/2SM FG SCT008
     FM221600 20004KT P6SM SCT015=

USA.gov is the U.S. government's official web portal to all federal, state and local government web resources and services.